sensor_id;sensor_type;location;lat;lon;timestamp;P1;durP1;ratioP1;P2;durP2;ratioP2
48263;SDS011;34086;51.076;13.722;2022-08-19T00:00:12;19.75;;;17.63;;
48263;SDS011;34086;51.076;13.722;2022-08-19T00:01:14;19.13;;;17.23;;
48263;SDS011;34086;51.076;13.722;2022-08-19T00:02:14;18.80;;;17.00;;
48263;SDS011;34086;51.076;13.722;2022-08-19T00:03:15;20.00;;;17.55;;
48263;SDS011;34086;51.076;13.722;2022-08-19T00:04:17;19.05;;;17.15;;
48263;SDS011;34086;51.076;13.722;2022-08-19T00:05:19;18.95;;;17.15;;
48263;SDS011;34086;51.076;13.722;2022-08-19T00:06:21;17.70;;;15.73;;
48263;SDS011;34086;51.076;13.722;2022-08-19T00:07:22;18.90;;;17.00;;
48263;SDS011;34086;51.076;13.722;2022-08-19T00:08:22;21.60;;;18.60;;
48263;SDS011;34086;51.076;13.722;2022-08-19T00:09:23;20.88;;;18.77;;
48263;SDS011;34086;51.076;13.722;2022-08-19T00:10:24;20.02;;;17.52;;
48263;SDS011;34086;51.076;13.722;2022-08-19T00:11:25;19.73;;;17.60;;
48263;SDS011;34086;51.076;13.722;2022-08-19T00:12:27;19.58;;;17.67;;
48263;SDS011;34086;51.076;13.722;2022-08-19T00:13:28;23.10;;;19.55;;
48263;SDS011;34086;51.076;13.722;2022-08-19T00:14:29;21.17;;;18.98;;
48263;SDS011;34086;51.076;13.722;2022-08-19T00:15:32;20.23;;;18.13;;
48263;SDS011;34086;51.076;13.722;2022-08-19T00:16:33;20.40;;;18.10;;
48263;SDS011;34086;51.076;13.722;2022-08-19T00:17:34;20.10;;;16.83;;
48263;SDS011;34086;51.076;13.722;2022-08-19T00:18:34;22.52;;;20.15;;
48263;SDS011;34086;51.076;13.722;2022-08-19T00:19:36;21.25;;;19.13;;
48263;SDS011;34086;51.076;13.722;2022-08-19T00:20:37;21.88;;;17.92;;
48263;SDS011;34086;51.076;13.722;2022-08-19T00:21:40;22.33;;;19.95;;
48263;SDS011;34086;51.076;13.722;2022-08-19T00:22:41;20.40;;;18.17;;
48263;SDS011;34086;51.076;13.722;2022-08-19T00:23:42;21.98;;;19.77;;
48263;SDS011;34086;51.076;13.722;2022-08-19T00:24:46;22.60;;;20.20;;
48263;SDS011;34086;51.076;13.722;2022-08-19T00:25:47;22.05;;;19.27;;
48263;SDS011;34086;51.076;13.722;2022-08-19T00:26:47;22.48;;;19.65;;
48263;SDS011;34086;51.076;13.722;2022-08-19T00:27:48;21.52;;;19.23;;
48263;SDS011;34086;51.076;13.722;2022-08-19T00:28:49;22.38;;;20.08;;
48263;SDS011;34086;51.076;13.722;2022-08-19T00:29:50;23.15;;;20.55;;
48263;SDS011;34086;51.076;13.722;2022-08-19T00:30:51;20.55;;;18.50;;
48263;SDS011;34086;51.076;13.722;2022-08-19T00:31:53;19.80;;;17.80;;
48263;SDS011;34086;51.076;13.722;2022-08-19T00:32:56;23.83;;;20.55;;
48263;SDS011;34086;51.076;13.722;2022-08-19T00:33:57;21.98;;;19.67;;
48263;SDS011;34086;51.076;13.722;2022-08-19T00:34:59;22.83;;;20.42;;
48263;SDS011;34086;51.076;13.722;2022-08-19T00:36:01;23.30;;;20.80;;
48263;SDS011;34086;51.076;13.722;2022-08-19T00:37:04;23.65;;;20.42;;
48263;SDS011;34086;51.076;13.722;2022-08-19T00:38:05;22.13;;;19.75;;
48263;SDS011;34086;51.076;13.722;2022-08-19T00:39:06;20.33;;;18.10;;
48263;SDS011;34086;51.076;13.722;2022-08-19T00:40:09;20.27;;;18.15;;
48263;SDS011;34086;51.076;13.722;2022-08-19T00:41:14;20.98;;;18.85;;
48263;SDS011;34086;51.076;13.722;2022-08-19T00:42:18;25.25;;;21.10;;
48263;SDS011;34086;51.076;13.722;2022-08-19T00:43:21;22.73;;;20.33;;
48263;SDS011;34086;51.076;13.722;2022-08-19T00:44:26;20.90;;;18.80;;
48263;SDS011;34086;51.076;13.722;2022-08-19T00:45:29;24.20;;;20.20;;
48263;SDS011;34086;51.076;13.722;2022-08-19T00:46:33;22.70;;;20.38;;
48263;SDS011;34086;51.076;13.722;2022-08-19T00:47:36;23.48;;;20.98;;
48263;SDS011;34086;51.076;13.722;2022-08-19T00:48:37;24.30;;;21.80;;
48263;SDS011;34086;51.076;13.722;2022-08-19T00:49:40;23.25;;;20.67;;
48263;SDS011;34086;51.076;13.722;2022-08-19T00:50:50;25.60;;;21.52;;
48263;SDS011;34086;51.076;13.722;2022-08-19T00:51:54;23.23;;;20.65;;
48263;SDS011;34086;51.076;13.722;2022-08-19T00:53:00;22.52;;;20.27;;
48263;SDS011;34086;51.076;13.722;2022-08-19T00:54:04;24.30;;;21.73;;
48263;SDS011;34086;51.076;13.722;2022-08-19T00:55:05;24.45;;;21.58;;
48263;SDS011;34086;51.076;13.722;2022-08-19T00:56:11;27.73;;;21.88;;
48263;SDS011;34086;51.076;13.722;2022-08-19T00:57:14;25.05;;;21.95;;
48263;SDS011;34086;51.076;13.722;2022-08-19T00:58:19;24.88;;;22.23;;
48263;SDS011;34086;51.076;13.722;2022-08-19T00:59:21;24.63;;;22.13;;
48263;SDS011;34086;51.076;13.722;2022-08-19T01:00:23;24.50;;;21.83;;
48263;SDS011;34086;51.076;13.722;2022-08-19T01:01:25;26.67;;;23.10;;
48263;SDS011;34086;51.076;13.722;2022-08-19T01:02:26;25.10;;;21.63;;
48263;SDS011;34086;51.076;13.722;2022-08-19T01:03:28;25.00;;;22.15;;
48263;SDS011;34086;51.076;13.722;2022-08-19T01:04:29;24.58;;;21.88;;
48263;SDS011;34086;51.076;13.722;2022-08-19T01:05:29;25.00;;;22.30;;
48263;SDS011;34086;51.076;13.722;2022-08-19T01:06:30;23.50;;;20.90;;
48263;SDS011;34086;51.076;13.722;2022-08-19T01:07:33;25.25;;;21.92;;
48263;SDS011;34086;51.076;13.722;2022-08-19T01:08:34;24.65;;;20.83;;
48263;SDS011;34086;51.076;13.722;2022-08-19T01:09:35;25.67;;;23.05;;
48263;SDS011;34086;51.076;13.722;2022-08-19T01:10:40;24.70;;;22.02;;
48263;SDS011;34086;51.076;13.722;2022-08-19T01:11:44;25.23;;;22.63;;
48263;SDS011;34086;51.076;13.722;2022-08-19T01:12:45;25.50;;;22.73;;
48263;SDS011;34086;51.076;13.722;2022-08-19T01:13:47;25.40;;;21.92;;
48263;SDS011;34086;51.076;13.722;2022-08-19T01:14:49;24.55;;;22.08;;
48263;SDS011;34086;51.076;13.722;2022-08-19T01:15:58;25.92;;;23.10;;
48263;SDS011;34086;51.076;13.722;2022-08-19T01:17:03;25.33;;;22.45;;
48263;SDS011;34086;51.076;13.722;2022-08-19T01:18:08;26.02;;;23.23;;
48263;SDS011;34086;51.076;13.722;2022-08-19T01:19:12;27.67;;;24.65;;
48263;SDS011;34086;51.076;13.722;2022-08-19T01:20:21;27.48;;;24.13;;
48263;SDS011;34086;51.076;13.722;2022-08-19T01:22:37;27.10;;;23.83;;
48263;SDS011;34086;51.076;13.722;2022-08-19T01:23:44;28.17;;;24.73;;
48263;SDS011;34086;51.076;13.722;2022-08-19T01:24:45;27.23;;;24.00;;
48263;SDS011;34086;51.076;13.722;2022-08-19T01:25:50;26.15;;;22.80;;
48263;SDS011;34086;51.076;13.722;2022-08-19T01:26:52;26.75;;;23.63;;
48263;SDS011;34086;51.076;13.722;2022-08-19T01:27:53;29.20;;;24.77;;
48263;SDS011;34086;51.076;13.722;2022-08-19T01:28:54;27.90;;;24.90;;
48263;SDS011;34086;51.076;13.722;2022-08-19T01:29:57;28.50;;;25.42;;
48263;SDS011;34086;51.076;13.722;2022-08-19T01:30:57;27.77;;;24.88;;
48263;SDS011;34086;51.076;13.722;2022-08-19T01:31:59;25.48;;;22.80;;
48263;SDS011;34086;51.076;13.722;2022-08-19T01:33:01;24.73;;;22.15;;
48263;SDS011;34086;51.076;13.722;2022-08-19T01:34:06;26.08;;;23.38;;
48263;SDS011;34086;51.076;13.722;2022-08-19T01:35:07;26.25;;;23.55;;
48263;SDS011;34086;51.076;13.722;2022-08-19T01:36:10;29.45;;;25.75;;
48263;SDS011;34086;51.076;13.722;2022-08-19T01:37:14;27.92;;;24.80;;
48263;SDS011;34086;51.076;13.722;2022-08-19T01:38:20;26.25;;;23.23;;
48263;SDS011;34086;51.076;13.722;2022-08-19T01:39:26;27.00;;;24.10;;
48263;SDS011;34086;51.076;13.722;2022-08-19T01:40:28;28.23;;;24.77;;
48263;SDS011;34086;51.076;13.722;2022-08-19T01:41:30;27.50;;;24.60;;
48263;SDS011;34086;51.076;13.722;2022-08-19T01:42:31;26.52;;;23.65;;
48263;SDS011;34086;51.076;13.722;2022-08-19T01:43:32;26.65;;;23.27;;
48263;SDS011;34086;51.076;13.722;2022-08-19T01:44:33;28.33;;;25.23;;
48263;SDS011;34086;51.076;13.722;2022-08-19T01:45:36;27.83;;;24.42;;
48263;SDS011;34086;51.076;13.722;2022-08-19T01:46:40;26.73;;;23.48;;
48263;SDS011;34086;51.076;13.722;2022-08-19T01:47:42;26.85;;;23.45;;
48263;SDS011;34086;51.076;13.722;2022-08-19T01:48:43;24.70;;;22.10;;
48263;SDS011;34086;51.076;13.722;2022-08-19T01:49:45;23.77;;;21.27;;
48263;SDS011;34086;51.076;13.722;2022-08-19T01:50:45;26.80;;;23.88;;
48263;SDS011;34086;51.076;13.722;2022-08-19T01:51:51;24.55;;;22.05;;
48263;SDS011;34086;51.076;13.722;2022-08-19T01:52:53;29.17;;;24.88;;
48263;SDS011;34086;51.076;13.722;2022-08-19T01:53:54;25.98;;;23.25;;
48263;SDS011;34086;51.076;13.722;2022-08-19T01:54:55;25.83;;;23.23;;
48263;SDS011;34086;51.076;13.722;2022-08-19T01:55:55;29.38;;;26.17;;
48263;SDS011;34086;51.076;13.722;2022-08-19T01:57:01;26.88;;;23.98;;
48263;SDS011;34086;51.076;13.722;2022-08-19T01:58:06;26.08;;;23.23;;
48263;SDS011;34086;51.076;13.722;2022-08-19T01:59:14;29.42;;;26.30;;
48263;SDS011;34086;51.076;13.722;2022-08-19T02:00:19;25.30;;;22.50;;
48263;SDS011;34086;51.076;13.722;2022-08-19T02:01:21;24.10;;;21.60;;
48263;SDS011;34086;51.076;13.722;2022-08-19T02:02:21;23.25;;;20.98;;
48263;SDS011;34086;51.076;13.722;2022-08-19T02:03:23;24.42;;;21.83;;
48263;SDS011;34086;51.076;13.722;2022-08-19T02:04:23;26.23;;;23.52;;
48263;SDS011;34086;51.076;13.722;2022-08-19T02:05:25;27.50;;;24.50;;
48263;SDS011;34086;51.076;13.722;2022-08-19T02:06:26;24.42;;;21.83;;
48263;SDS011;34086;51.076;13.722;2022-08-19T02:07:27;25.60;;;22.42;;
48263;SDS011;34086;51.076;13.722;2022-08-19T02:08:29;24.75;;;22.25;;
48263;SDS011;34086;51.076;13.722;2022-08-19T02:09:31;23.77;;;21.38;;
48263;SDS011;34086;51.076;13.722;2022-08-19T02:10:32;23.38;;;20.92;;
48263;SDS011;34086;51.076;13.722;2022-08-19T02:11:33;27.33;;;24.35;;
48263;SDS011;34086;51.076;13.722;2022-08-19T02:12:36;24.58;;;22.10;;
48263;SDS011;34086;51.076;13.722;2022-08-19T02:13:37;25.65;;;23.05;;
48263;SDS011;34086;51.076;13.722;2022-08-19T02:14:37;25.48;;;22.77;;
48263;SDS011;34086;51.076;13.722;2022-08-19T02:15:38;27.80;;;23.73;;
48263;SDS011;34086;51.076;13.722;2022-08-19T02:16:39;27.25;;;24.50;;
48263;SDS011;34086;51.076;13.722;2022-08-19T02:17:41;26.55;;;23.80;;
48263;SDS011;34086;51.076;13.722;2022-08-19T02:18:42;26.95;;;24.05;;
48263;SDS011;34086;51.076;13.722;2022-08-19T02:19:42;27.25;;;24.55;;
48263;SDS011;34086;51.076;13.722;2022-08-19T02:20:43;24.73;;;22.10;;
48263;SDS011;34086;51.076;13.722;2022-08-19T02:21:44;24.83;;;22.05;;
48263;SDS011;34086;51.076;13.722;2022-08-19T02:22:45;29.45;;;25.17;;
48263;SDS011;34086;51.076;13.722;2022-08-19T02:23:46;27.15;;;24.25;;
48263;SDS011;34086;51.076;13.722;2022-08-19T02:24:47;27.35;;;24.45;;
48263;SDS011;34086;51.076;13.722;2022-08-19T02:25:48;26.50;;;23.65;;
48263;SDS011;34086;51.076;13.722;2022-08-19T02:26:51;28.02;;;25.10;;
48263;SDS011;34086;51.076;13.722;2022-08-19T02:27:52;26.23;;;23.42;;
48263;SDS011;34086;51.076;13.722;2022-08-19T02:28:55;24.15;;;21.60;;
48263;SDS011;34086;51.076;13.722;2022-08-19T02:29:56;24.45;;;21.92;;
48263;SDS011;34086;51.076;13.722;2022-08-19T02:30:56;23.95;;;21.50;;
48263;SDS011;34086;51.076;13.722;2022-08-19T02:32:00;22.90;;;20.33;;
48263;SDS011;34086;51.076;13.722;2022-08-19T02:33:01;22.45;;;20.20;;
48263;SDS011;34086;51.076;13.722;2022-08-19T02:34:01;21.63;;;19.42;;
48263;SDS011;34086;51.076;13.722;2022-08-19T02:35:02;21.17;;;19.13;;
48263;SDS011;34086;51.076;13.722;2022-08-19T02:36:04;20.90;;;18.85;;
48263;SDS011;34086;51.076;13.722;2022-08-19T02:37:06;24.83;;;22.30;;
48263;SDS011;34086;51.076;13.722;2022-08-19T02:38:27;25.20;;;22.45;;
48263;SDS011;34086;51.076;13.722;2022-08-19T02:39:28;23.67;;;21.27;;
48263;SDS011;34086;51.076;13.722;2022-08-19T02:40:29;24.10;;;21.60;;
48263;SDS011;34086;51.076;13.722;2022-08-19T02:41:34;22.30;;;19.95;;
48263;SDS011;34086;51.076;13.722;2022-08-19T02:42:34;26.60;;;23.95;;
48263;SDS011;34086;51.076;13.722;2022-08-19T02:43:35;25.15;;;22.55;;
48263;SDS011;34086;51.076;13.722;2022-08-19T02:44:36;25.10;;;22.42;;
48263;SDS011;34086;51.076;13.722;2022-08-19T02:45:38;24.70;;;22.20;;
48263;SDS011;34086;51.076;13.722;2022-08-19T02:46:40;24.48;;;21.95;;
48263;SDS011;34086;51.076;13.722;2022-08-19T02:47:41;25.13;;;22.55;;
48263;SDS011;34086;51.076;13.722;2022-08-19T02:48:42;25.23;;;22.63;;
48263;SDS011;34086;51.076;13.722;2022-08-19T02:49:43;22.67;;;20.35;;
48263;SDS011;34086;51.076;13.722;2022-08-19T02:50:45;24.08;;;21.63;;
48263;SDS011;34086;51.076;13.722;2022-08-19T02:51:46;24.80;;;22.30;;
48263;SDS011;34086;51.076;13.722;2022-08-19T02:52:47;25.05;;;22.55;;
48263;SDS011;34086;51.076;13.722;2022-08-19T02:53:48;23.90;;;21.52;;
48263;SDS011;34086;51.076;13.722;2022-08-19T02:54:49;23.35;;;20.90;;
48263;SDS011;34086;51.076;13.722;2022-08-19T02:55:50;22.63;;;20.42;;
48263;SDS011;34086;51.076;13.722;2022-08-19T02:56:51;25.80;;;23.15;;
48263;SDS011;34086;51.076;13.722;2022-08-19T02:57:51;24.25;;;21.63;;
48263;SDS011;34086;51.076;13.722;2022-08-19T02:58:53;24.17;;;21.77;;
48263;SDS011;34086;51.076;13.722;2022-08-19T02:59:55;23.45;;;21.15;;
48263;SDS011;34086;51.076;13.722;2022-08-19T03:00:56;24.67;;;22.05;;
48263;SDS011;34086;51.076;13.722;2022-08-19T03:01:57;23.55;;;21.20;;
48263;SDS011;34086;51.076;13.722;2022-08-19T03:02:58;26.13;;;23.33;;
48263;SDS011;34086;51.076;13.722;2022-08-19T03:04:01;27.80;;;24.02;;
48263;SDS011;34086;51.076;13.722;2022-08-19T03:05:04;25.33;;;22.83;;
48263;SDS011;34086;51.076;13.722;2022-08-19T03:06:06;25.83;;;23.23;;
48263;SDS011;34086;51.076;13.722;2022-08-19T03:07:09;22.92;;;20.63;;
48263;SDS011;34086;51.076;13.722;2022-08-19T03:08:13;23.13;;;20.90;;
48263;SDS011;34086;51.076;13.722;2022-08-19T03:09:14;23.27;;;20.90;;
48263;SDS011;34086;51.076;13.722;2022-08-19T03:10:15;25.15;;;22.63;;
48263;SDS011;34086;51.076;13.722;2022-08-19T03:11:17;22.63;;;20.33;;
48263;SDS011;34086;51.076;13.722;2022-08-19T03:12:20;22.95;;;20.55;;
48263;SDS011;34086;51.076;13.722;2022-08-19T03:13:21;23.02;;;20.73;;
48263;SDS011;34086;51.076;13.722;2022-08-19T03:14:23;26.10;;;23.45;;
48263;SDS011;34086;51.076;13.722;2022-08-19T03:15:23;25.25;;;22.75;;
48263;SDS011;34086;51.076;13.722;2022-08-19T03:16:25;23.17;;;20.67;;
48263;SDS011;34086;51.076;13.722;2022-08-19T03:17:27;23.55;;;21.25;;
48263;SDS011;34086;51.076;13.722;2022-08-19T03:18:28;27.98;;;24.90;;
48263;SDS011;34086;51.076;13.722;2022-08-19T03:19:29;28.17;;;25.10;;
48263;SDS011;34086;51.076;13.722;2022-08-19T03:20:31;27.45;;;24.67;;
48263;SDS011;34086;51.076;13.722;2022-08-19T03:21:33;25.98;;;23.17;;
48263;SDS011;34086;51.076;13.722;2022-08-19T03:22:34;25.55;;;22.95;;
48263;SDS011;34086;51.076;13.722;2022-08-19T03:23:35;25.13;;;22.42;;
48263;SDS011;34086;51.076;13.722;2022-08-19T03:24:36;28.98;;;25.38;;
48263;SDS011;34086;51.076;13.722;2022-08-19T03:25:43;28.67;;;25.67;;
48263;SDS011;34086;51.076;13.722;2022-08-19T03:26:47;28.38;;;25.20;;
48263;SDS011;34086;51.076;13.722;2022-08-19T03:27:49;26.35;;;23.75;;
48263;SDS011;34086;51.076;13.722;2022-08-19T03:28:50;26.27;;;23.52;;
48263;SDS011;34086;51.076;13.722;2022-08-19T03:29:51;26.65;;;23.92;;
48263;SDS011;34086;51.076;13.722;2022-08-19T03:30:55;30.15;;;25.85;;
48263;SDS011;34086;51.076;13.722;2022-08-19T03:32:03;29.70;;;26.55;;
48263;SDS011;34086;51.076;13.722;2022-08-19T03:33:05;26.30;;;23.63;;
48263;SDS011;34086;51.076;13.722;2022-08-19T03:34:06;26.98;;;24.10;;
48263;SDS011;34086;51.076;13.722;2022-08-19T03:35:07;25.58;;;22.90;;
48263;SDS011;34086;51.076;13.722;2022-08-19T03:36:12;29.67;;;26.52;;
48263;SDS011;34086;51.076;13.722;2022-08-19T03:37:15;30.25;;;27.08;;
48263;SDS011;34086;51.076;13.722;2022-08-19T03:38:15;29.95;;;26.70;;
48263;SDS011;34086;51.076;13.722;2022-08-19T03:39:16;27.63;;;24.77;;
48263;SDS011;34086;51.076;13.722;2022-08-19T03:40:17;27.73;;;24.85;;
48263;SDS011;34086;51.076;13.722;2022-08-19T03:41:20;30.60;;;26.77;;
48263;SDS011;34086;51.076;13.722;2022-08-19T03:42:23;30.73;;;27.35;;
48263;SDS011;34086;51.076;13.722;2022-08-19T03:43:24;30.05;;;26.85;;
48263;SDS011;34086;51.076;13.722;2022-08-19T03:44:25;26.92;;;24.23;;
48263;SDS011;34086;51.076;13.722;2022-08-19T03:45:26;25.27;;;22.77;;
48263;SDS011;34086;51.076;13.722;2022-08-19T03:46:28;28.83;;;25.88;;
48263;SDS011;34086;51.076;13.722;2022-08-19T03:47:30;27.75;;;24.65;;
48263;SDS011;34086;51.076;13.722;2022-08-19T03:48:31;27.20;;;24.40;;
48263;SDS011;34086;51.076;13.722;2022-08-19T03:49:33;27.90;;;24.58;;
48263;SDS011;34086;51.076;13.722;2022-08-19T03:50:40;28.95;;;25.88;;
48263;SDS011;34086;51.076;13.722;2022-08-19T03:51:42;29.83;;;26.45;;
48263;SDS011;34086;51.076;13.722;2022-08-19T03:52:46;29.00;;;25.90;;
48263;SDS011;34086;51.076;13.722;2022-08-19T03:53:50;26.50;;;23.80;;
48263;SDS011;34086;51.076;13.722;2022-08-19T03:54:52;31.63;;;26.75;;
48263;SDS011;34086;51.076;13.722;2022-08-19T03:55:53;29.00;;;25.52;;
48263;SDS011;34086;51.076;13.722;2022-08-19T03:56:55;28.83;;;24.88;;
48263;SDS011;34086;51.076;13.722;2022-08-19T03:57:57;29.60;;;26.38;;
48263;SDS011;34086;51.076;13.722;2022-08-19T03:58:58;28.13;;;25.13;;
48263;SDS011;34086;51.076;13.722;2022-08-19T03:59:59;28.33;;;25.00;;
48263;SDS011;34086;51.076;13.722;2022-08-19T04:01:00;26.50;;;23.58;;
48263;SDS011;34086;51.076;13.722;2022-08-19T04:02:03;27.13;;;24.30;;
48263;SDS011;34086;51.076;13.722;2022-08-19T04:03:09;27.00;;;24.20;;
48263;SDS011;34086;51.076;13.722;2022-08-19T04:04:09;26.02;;;23.35;;
48263;SDS011;34086;51.076;13.722;2022-08-19T04:05:10;25.48;;;22.88;;
48263;SDS011;34086;51.076;13.722;2022-08-19T04:06:18;27.60;;;24.67;;
48263;SDS011;34086;51.076;13.722;2022-08-19T04:07:22;27.65;;;24.33;;
48263;SDS011;34086;51.076;13.722;2022-08-19T04:08:25;24.80;;;22.20;;
48263;SDS011;34086;51.076;13.722;2022-08-19T04:09:26;28.38;;;24.92;;
48263;SDS011;34086;51.076;13.722;2022-08-19T04:10:28;28.75;;;25.77;;
48263;SDS011;34086;51.076;13.722;2022-08-19T04:11:39;25.58;;;22.95;;
48263;SDS011;34086;51.076;13.722;2022-08-19T04:12:41;27.33;;;24.52;;
48263;SDS011;34086;51.076;13.722;2022-08-19T04:13:42;25.33;;;22.63;;
48263;SDS011;34086;51.076;13.722;2022-08-19T04:14:44;27.27;;;24.58;;
48263;SDS011;34086;51.076;13.722;2022-08-19T04:15:45;29.42;;;25.92;;
48263;SDS011;34086;51.076;13.722;2022-08-19T04:16:47;27.45;;;24.55;;
48263;SDS011;34086;51.076;13.722;2022-08-19T04:17:48;27.25;;;24.35;;
48263;SDS011;34086;51.076;13.722;2022-08-19T04:18:49;29.30;;;26.13;;
48263;SDS011;34086;51.076;13.722;2022-08-19T04:19:50;30.20;;;26.15;;
48263;SDS011;34086;51.076;13.722;2022-08-19T04:20:51;28.40;;;25.40;;
48263;SDS011;34086;51.076;13.722;2022-08-19T04:21:53;25.75;;;23.15;;
48263;SDS011;34086;51.076;13.722;2022-08-19T04:22:54;27.65;;;24.75;;
48263;SDS011;34086;51.076;13.722;2022-08-19T04:23:57;28.33;;;25.42;;
48263;SDS011;34086;51.076;13.722;2022-08-19T04:25:00;25.52;;;22.83;;
48263;SDS011;34086;51.076;13.722;2022-08-19T04:26:02;29.08;;;25.85;;
48263;SDS011;34086;51.076;13.722;2022-08-19T04:27:03;28.95;;;25.83;;
48263;SDS011;34086;51.076;13.722;2022-08-19T04:28:05;27.98;;;24.98;;
48263;SDS011;34086;51.076;13.722;2022-08-19T04:29:08;28.10;;;25.10;;
48263;SDS011;34086;51.076;13.722;2022-08-19T04:30:13;28.42;;;25.35;;
48263;SDS011;34086;51.076;13.722;2022-08-19T04:31:15;29.70;;;26.40;;
48263;SDS011;34086;51.076;13.722;2022-08-19T04:32:18;29.58;;;26.42;;
48263;SDS011;34086;51.076;13.722;2022-08-19T04:33:20;28.70;;;25.45;;
48263;SDS011;34086;51.076;13.722;2022-08-19T04:34:23;29.67;;;26.48;;
48263;SDS011;34086;51.076;13.722;2022-08-19T04:35:25;27.33;;;24.30;;
48263;SDS011;34086;51.076;13.722;2022-08-19T04:36:28;26.85;;;23.92;;
48263;SDS011;34086;51.076;13.722;2022-08-19T04:37:31;24.60;;;22.20;;
48263;SDS011;34086;51.076;13.722;2022-08-19T04:38:33;24.75;;;22.08;;
48263;SDS011;34086;51.076;13.722;2022-08-19T04:39:34;25.25;;;22.55;;
48263;SDS011;34086;51.076;13.722;2022-08-19T04:41:10;24.63;;;22.13;;
48263;SDS011;34086;51.076;13.722;2022-08-19T04:42:29;24.10;;;21.60;;
48263;SDS011;34086;51.076;13.722;2022-08-19T04:43:39;23.83;;;21.35;;
48263;SDS011;34086;51.076;13.722;2022-08-19T04:44:39;27.00;;;23.45;;
48263;SDS011;34086;51.076;13.722;2022-08-19T04:45:47;23.88;;;21.48;;
48263;SDS011;34086;51.076;13.722;2022-08-19T04:47:01;28.00;;;23.38;;
48263;SDS011;34086;51.076;13.722;2022-08-19T04:48:05;25.40;;;22.90;;
48263;SDS011;34086;51.076;13.722;2022-08-19T04:49:06;23.92;;;21.42;;
48263;SDS011;34086;51.076;13.722;2022-08-19T04:50:07;25.98;;;23.27;;
48263;SDS011;34086;51.076;13.722;2022-08-19T04:51:11;27.00;;;24.20;;
48263;SDS011;34086;51.076;13.722;2022-08-19T04:52:13;30.30;;;25.58;;
48263;SDS011;34086;51.076;13.722;2022-08-19T04:53:13;27.67;;;24.45;;
48263;SDS011;34086;51.076;13.722;2022-08-19T04:54:16;28.05;;;24.95;;
48263;SDS011;34086;51.076;13.722;2022-08-19T04:55:18;26.70;;;23.88;;
48263;SDS011;34086;51.076;13.722;2022-08-19T04:56:19;24.88;;;22.35;;
48263;SDS011;34086;51.076;13.722;2022-08-19T04:57:21;31.63;;;26.95;;
48263;SDS011;34086;51.076;13.722;2022-08-19T04:58:22;28.35;;;25.30;;
48263;SDS011;34086;51.076;13.722;2022-08-19T04:59:25;26.00;;;23.38;;
48263;SDS011;34086;51.076;13.722;2022-08-19T05:00:25;27.33;;;24.50;;
48263;SDS011;34086;51.076;13.722;2022-08-19T05:01:27;24.83;;;22.33;;
48263;SDS011;34086;51.076;13.722;2022-08-19T05:02:28;32.35;;;25.25;;
48263;SDS011;34086;51.076;13.722;2022-08-19T05:03:29;29.35;;;25.42;;
48263;SDS011;34086;51.076;13.722;2022-08-19T05:04:33;29.38;;;25.15;;
48263;SDS011;34086;51.076;13.722;2022-08-19T05:05:37;28.95;;;23.83;;
48263;SDS011;34086;51.076;13.722;2022-08-19T05:06:39;35.17;;;25.52;;
48263;SDS011;34086;51.076;13.722;2022-08-19T05:07:39;33.58;;;25.85;;
48263;SDS011;34086;51.076;13.722;2022-08-19T05:08:42;32.35;;;25.73;;
48263;SDS011;34086;51.076;13.722;2022-08-19T05:09:46;30.63;;;24.63;;
48263;SDS011;34086;51.076;13.722;2022-08-19T05:10:47;26.30;;;23.50;;
48263;SDS011;34086;51.076;13.722;2022-08-19T05:11:49;26.27;;;22.80;;
48263;SDS011;34086;51.076;13.722;2022-08-19T05:12:52;26.00;;;23.13;;
48263;SDS011;34086;51.076;13.722;2022-08-19T05:13:53;25.52;;;22.83;;
48263;SDS011;34086;51.076;13.722;2022-08-19T05:14:54;23.35;;;20.85;;
48263;SDS011;34086;51.076;13.722;2022-08-19T05:15:57;25.00;;;22.40;;
48263;SDS011;34086;51.076;13.722;2022-08-19T05:17:00;24.40;;;21.85;;
48263;SDS011;34086;51.076;13.722;2022-08-19T05:18:00;28.23;;;24.38;;
48263;SDS011;34086;51.076;13.722;2022-08-19T05:19:19;28.33;;;24.17;;
48263;SDS011;34086;51.076;13.722;2022-08-19T05:20:39;29.15;;;24.02;;
48263;SDS011;34086;51.076;13.722;2022-08-19T05:21:59;27.85;;;24.90;;
48263;SDS011;34086;51.076;13.722;2022-08-19T05:23:18;26.92;;;24.23;;
48263;SDS011;34086;51.076;13.722;2022-08-19T05:24:20;27.65;;;24.67;;
48263;SDS011;34086;51.076;13.722;2022-08-19T05:25:22;29.70;;;25.73;;
48263;SDS011;34086;51.076;13.722;2022-08-19T05:26:24;28.75;;;25.75;;
48263;SDS011;34086;51.076;13.722;2022-08-19T05:27:26;27.73;;;24.67;;
48263;SDS011;34086;51.076;13.722;2022-08-19T05:28:26;30.15;;;25.55;;
48263;SDS011;34086;51.076;13.722;2022-08-19T05:29:28;27.95;;;25.05;;
48263;SDS011;34086;51.076;13.722;2022-08-19T05:30:29;28.98;;;25.77;;
48263;SDS011;34086;51.076;13.722;2022-08-19T05:31:30;27.75;;;24.95;;
48263;SDS011;34086;51.076;13.722;2022-08-19T05:32:31;25.50;;;22.90;;
48263;SDS011;34086;51.076;13.722;2022-08-19T05:33:32;25.75;;;23.02;;
48263;SDS011;34086;51.076;13.722;2022-08-19T05:34:33;27.83;;;24.90;;
48263;SDS011;34086;51.076;13.722;2022-08-19T05:35:33;28.75;;;25.77;;
48263;SDS011;34086;51.076;13.722;2022-08-19T05:36:39;27.02;;;24.13;;
48263;SDS011;34086;51.076;13.722;2022-08-19T05:37:43;26.52;;;23.77;;
48263;SDS011;34086;51.076;13.722;2022-08-19T05:38:43;27.40;;;24.15;;
48263;SDS011;34086;51.076;13.722;2022-08-19T05:39:44;29.20;;;25.77;;
48263;SDS011;34086;51.076;13.722;2022-08-19T05:42:59;28.02;;;25.02;;
48263;SDS011;34086;51.076;13.722;2022-08-19T05:44:03;24.63;;;22.02;;
48263;SDS011;34086;51.076;13.722;2022-08-19T05:45:09;29.08;;;25.83;;
48263;SDS011;34086;51.076;13.722;2022-08-19T05:46:15;28.65;;;25.60;;
48263;SDS011;34086;51.076;13.722;2022-08-19T05:47:18;25.38;;;22.67;;
48263;SDS011;34086;51.076;13.722;2022-08-19T05:48:20;25.55;;;22.95;;
48263;SDS011;34086;51.076;13.722;2022-08-19T05:49:21;25.10;;;22.40;;
48263;SDS011;34086;51.076;13.722;2022-08-19T05:50:22;24.95;;;22.40;;
48263;SDS011;34086;51.076;13.722;2022-08-19T05:51:23;26.70;;;23.92;;
48263;SDS011;34086;51.076;13.722;2022-08-19T05:52:25;24.90;;;22.30;;
48263;SDS011;34086;51.076;13.722;2022-08-19T05:53:27;23.95;;;21.52;;
48263;SDS011;34086;51.076;13.722;2022-08-19T05:54:27;25.10;;;21.98;;
48263;SDS011;34086;51.076;13.722;2022-08-19T05:55:28;26.50;;;23.80;;
48263;SDS011;34086;51.076;13.722;2022-08-19T05:56:29;27.65;;;24.75;;
48263;SDS011;34086;51.076;13.722;2022-08-19T05:57:36;26.85;;;24.00;;
48263;SDS011;34086;51.076;13.722;2022-08-19T05:58:37;28.35;;;25.13;;
48263;SDS011;34086;51.076;13.722;2022-08-19T05:59:38;27.52;;;24.73;;
48263;SDS011;34086;51.076;13.722;2022-08-19T06:00:39;27.80;;;24.63;;
48263;SDS011;34086;51.076;13.722;2022-08-19T06:01:43;24.65;;;22.05;;
48263;SDS011;34086;51.076;13.722;2022-08-19T06:02:45;25.60;;;22.88;;
48263;SDS011;34086;51.076;13.722;2022-08-19T06:03:46;24.83;;;22.15;;